sensor_id;sensor_type;location;lat;lon;timestamp;pressure;altitude;pressure_sealevel;temperature;humidity
8575;BME280;4325;42.520;27.448;2023-07-31T00:01:58;100423.97;;;21.81;100.00
8575;BME280;4325;42.520;27.448;2023-07-31T00:04:25;100428.66;;;21.77;100.00
8575;BME280;4325;42.520;27.448;2023-07-31T00:06:53;100424.59;;;21.75;100.00
8575;BME280;4325;42.520;27.448;2023-07-31T00:09:20;100428.44;;;21.70;100.00
8575;BME280;4325;42.520;27.448;2023-07-31T00:11:47;100427.50;;;21.66;100.00
8575;BME280;4325;42.520;27.448;2023-07-31T00:14:14;100427.78;;;21.61;100.00
8575;BME280;4325;42.520;27.448;2023-07-31T00:16:41;100425.00;;;21.61;100.00
8575;BME280;4325;42.520;27.448;2023-07-31T00:19:07;100413.03;;;21.60;100.00
8575;BME280;4325;42.520;27.448;2023-07-31T00:21:34;100407.81;;;21.59;100.00
8575;BME280;4325;42.520;27.448;2023-07-31T00:24:03;100405.75;;;21.56;100.00
8575;BME280;4325;42.520;27.448;2023-07-31T00:26:30;100406.44;;;21.53;100.00
8575;BME280;4325;42.520;27.448;2023-07-31T00:28:57;100396.81;;;21.50;100.00
8575;BME280;4325;42.520;27.448;2023-07-31T00:31:24;100403.91;;;21.48;100.00
8575;BME280;4325;42.520;27.448;2023-07-31T00:33:50;100401.38;;;21.43;100.00
8575;BME280;4325;42.520;27.448;2023-07-31T00:36:17;100404.59;;;21.45;100.00
8575;BME280;4325;42.520;27.448;2023-07-31T00:38:44;100414.94;;;21.44;100.00
8575;BME280;4325;42.520;27.448;2023-07-31T00:41:13;100404.59;;;21.45;100.00
8575;BME280;4325;42.520;27.448;2023-07-31T00:43:40;100416.44;;;21.42;100.00
8575;BME280;4325;42.520;27.448;2023-07-31T00:46:07;100414.63;;;21.34;100.00
8575;BME280;4325;42.520;27.448;2023-07-31T00:48:34;100425.03;;;21.37;100.00
8575;BME280;4325;42.520;27.448;2023-07-31T00:51:01;100427.38;;;21.35;100.00
8575;BME280;4325;42.520;27.448;2023-07-31T00:53:28;100427.50;;;21.38;100.00
8575;BME280;4325;42.520;27.448;2023-07-31T00:55:56;100426.59;;;21.34;100.00
8575;BME280;4325;42.520;27.448;2023-07-31T00:58:24;100419.00;;;21.35;100.00
8575;BME280;4325;42.520;27.448;2023-07-31T01:00:51;100430.88;;;21.32;100.00
8575;BME280;4325;42.520;27.448;2023-07-31T01:03:18;100419.63;;;21.16;100.00
8575;BME280;4325;42.520;27.448;2023-07-31T01:06:06;100416.69;;;21.00;100.00
8575;BME280;4325;42.520;27.448;2023-07-31T01:08:41;100412.31;;;20.87;100.00
8575;BME280;4325;42.520;27.448;2023-07-31T01:11:14;100413.00;;;20.84;100.00
8575;BME280;4325;42.520;27.448;2023-07-31T01:13:44;100419.50;;;20.88;100.00
8575;BME280;4325;42.520;27.448;2023-07-31T01:16:11;100416.94;;;20.83;100.00
8575;BME280;4325;42.520;27.448;2023-07-31T01:18:38;100427.75;;;20.85;100.00
8575;BME280;4325;42.520;27.448;2023-07-31T01:21:18;100435.03;;;20.89;100.00
8575;BME280;4325;42.520;27.448;2023-07-31T01:24:05;100439.56;;;20.94;100.00
8575;BME280;4325;42.520;27.448;2023-07-31T01:26:38;100439.47;;;20.90;100.00
8575;BME280;4325;42.520;27.448;2023-07-31T01:29:10;100438.28;;;20.79;100.00
8575;BME280;4325;42.520;27.448;2023-07-31T01:31:39;100436.41;;;20.71;100.00
8575;BME280;4325;42.520;27.448;2023-07-31T01:34:10;100449.41;;;20.67;100.00
8575;BME280;4325;42.520;27.448;2023-07-31T01:36:37;100453.69;;;20.65;100.00
8575;BME280;4325;42.520;27.448;2023-07-31T01:39:04;100454.03;;;20.63;100.00
8575;BME280;4325;42.520;27.448;2023-07-31T01:41:31;100457.38;;;20.57;100.00
8575;BME280;4325;42.520;27.448;2023-07-31T01:44:00;100442.09;;;20.51;100.00
8575;BME280;4325;42.520;27.448;2023-07-31T01:46:27;100431.03;;;20.42;100.00
8575;BME280;4325;42.520;27.448;2023-07-31T01:48:54;100426.41;;;20.34;100.00
8575;BME280;4325;42.520;27.448;2023-07-31T01:51:21;100422.34;;;20.31;100.00
8575;BME280;4325;42.520;27.448;2023-07-31T01:53:48;100427.09;;;20.31;100.00
8575;BME280;4325;42.520;27.448;2023-07-31T01:56:15;100430.22;;;20.29;100.00
8575;BME280;4325;42.520;27.448;2023-07-31T01:58:42;100422.69;;;20.30;100.00
8575;BME280;4325;42.520;27.448;2023-07-31T02:01:10;100420.59;;;20.27;100.00
8575;BME280;4325;42.520;27.448;2023-07-31T02:03:37;100423.84;;;20.29;100.00
8575;BME280;4325;42.520;27.448;2023-07-31T02:06:04;100422.09;;;20.24;100.00
8575;BME280;4325;42.520;27.448;2023-07-31T02:08:31;100433.06;;;20.21;100.00
8575;BME280;4325;42.520;27.448;2023-07-31T02:10:58;100432.41;;;20.24;100.00
8575;BME280;4325;42.520;27.448;2023-07-31T02:13:25;100404.06;;;20.10;100.00
8575;BME280;4325;42.520;27.448;2023-07-31T02:15:51;100425.66;;;20.25;100.00
8575;BME280;4325;42.520;27.448;2023-07-31T02:18:20;100434.00;;;20.25;100.00
8575;BME280;4325;42.520;27.448;2023-07-31T02:20:49;100439.78;;;20.20;100.00
8575;BME280;4325;42.520;27.448;2023-07-31T02:23:16;100439.28;;;20.18;100.00
8575;BME280;4325;42.520;27.448;2023-07-31T02:25:44;100437.47;;;20.22;100.00
8575;BME280;4325;42.520;27.448;2023-07-31T02:28:11;100431.44;;;20.20;100.00
8575;BME280;4325;42.520;27.448;2023-07-31T02:30:38;100429.66;;;20.15;100.00
8575;BME280;4325;42.520;27.448;2023-07-31T02:33:05;100441.81;;;20.11;100.00
8575;BME280;4325;42.520;27.448;2023-07-31T02:35:33;100444.59;;;20.11;100.00
8575;BME280;4325;42.520;27.448;2023-07-31T02:38:00;100447.53;;;20.14;100.00
8575;BME280;4325;42.520;27.448;2023-07-31T02:40:27;100447.38;;;20.11;100.00
8575;BME280;4325;42.520;27.448;2023-07-31T02:42:54;100441.34;;;20.09;100.00
8575;BME280;4325;42.520;27.448;2023-07-31T02:45:21;100433.22;;;20.04;100.00
8575;BME280;4325;42.520;27.448;2023-07-31T02:47:48;100440.97;;;19.98;100.00
8575;BME280;4325;42.520;27.448;2023-07-31T02:50:15;100433.66;;;19.94;100.00
8575;BME280;4325;42.520;27.448;2023-07-31T02:52:43;100431.56;;;19.91;100.00
8575;BME280;4325;42.520;27.448;2023-07-31T02:55:10;100438.28;;;19.90;100.00
8575;BME280;4325;42.520;27.448;2023-07-31T02:57:37;100445.47;;;19.91;100.00
8575;BME280;4325;42.520;27.448;2023-07-31T03:00:05;100450.06;;;19.87;100.00
8575;BME280;4325;42.520;27.448;2023-07-31T03:02:32;100443.56;;;19.83;100.00
8575;BME280;4325;42.520;27.448;2023-07-31T03:04:59;100432.47;;;19.83;100.00
8575;BME280;4325;42.520;27.448;2023-07-31T03:07:26;100447.22;;;19.74;100.00
8575;BME280;4325;42.520;27.448;2023-07-31T03:09:55;100454.63;;;19.70;100.00
8575;BME280;4325;42.520;27.448;2023-07-31T03:12:23;100459.72;;;19.68;100.00
8575;BME280;4325;42.520;27.448;2023-07-31T03:14:50;100466.06;;;19.69;100.00
8575;BME280;4325;42.520;27.448;2023-07-31T03:17:17;100466.19;;;19.72;100.00
8575;BME280;4325;42.520;27.448;2023-07-31T03:19:44;100465.53;;;19.75;100.00
8575;BME280;4325;42.520;27.448;2023-07-31T03:22:10;100467.28;;;19.80;100.00
8575;BME280;4325;42.520;27.448;2023-07-31T03:24:37;100466.94;;;19.82;100.00
8575;BME280;4325;42.520;27.448;2023-07-31T03:27:06;100469.19;;;19.88;100.00
8575;BME280;4325;42.520;27.448;2023-07-31T03:29:33;100467.69;;;19.91;100.00
8575;BME280;4325;42.520;27.448;2023-07-31T03:32:00;100457.31;;;20.00;100.00
8575;BME280;4325;42.520;27.448;2023-07-31T03:34:27;100466.56;;;20.04;100.00
8575;BME280;4325;42.520;27.448;2023-07-31T03:36:54;100468.22;;;20.05;100.00
8575;BME280;4325;42.520;27.448;2023-07-31T03:39:20;100471.06;;;19.96;100.00
8575;BME280;4325;42.520;27.448;2023-07-31T03:41:47;100466.31;;;19.97;100.00
8575;BME280;4325;42.520;27.448;2023-07-31T03:44:15;100464.47;;;20.01;100.00
8575;BME280;4325;42.520;27.448;2023-07-31T03:46:42;100465.22;;;20.10;100.00
8575;BME280;4325;42.520;27.448;2023-07-31T03:49:09;100461.53;;;20.18;100.00
8575;BME280;4325;42.520;27.448;2023-07-31T03:51:36;100456.25;;;20.25;100.00
8575;BME280;4325;42.520;27.448;2023-07-31T03:54:03;100459.78;;;20.34;100.00
8575;BME280;4325;42.520;27.448;2023-07-31T03:56:30;100454.47;;;20.41;100.00
8575;BME280;4325;42.520;27.448;2023-07-31T03:58:57;100463.16;;;20.52;100.00
8575;BME280;4325;42.520;27.448;2023-07-31T04:01:26;100455.88;;;20.59;100.00
8575;BME280;4325;42.520;27.448;2023-07-31T04:03:52;100465.41;;;20.70;100.00
8575;BME280;4325;42.520;27.448;2023-07-31T04:06:19;100457.31;;;20.77;100.00
8575;BME280;4325;42.520;27.448;2023-07-31T04:08:46;100459.19;;;20.85;100.00
8575;BME280;4325;42.520;27.448;2023-07-31T04:11:13;100465.66;;;20.89;100.00
8575;BME280;4325;42.520;27.448;2023-07-31T04:13:40;100459.03;;;20.94;100.00
8575;BME280;4325;42.520;27.448;2023-07-31T04:16:07;100461.72;;;21.02;100.00
8575;BME280;4325;42.520;27.448;2023-07-31T04:18:35;100461.03;;;21.05;100.00
8575;BME280;4325;42.520;27.448;2023-07-31T04:21:02;100472.28;;;20.97;100.00
8575;BME280;4325;42.520;27.448;2023-07-31T04:23:29;100463.47;;;20.95;100.00
8575;BME280;4325;42.520;27.448;2023-07-31T04:25:56;100460.25;;;21.05;100.00
8575;BME280;4325;42.520;27.448;2023-07-31T04:28:23;100461.50;;;21.08;100.00
8575;BME280;4325;42.520;27.448;2023-07-31T04:30:51;100468.00;;;21.12;100.00
8575;BME280;4325;42.520;27.448;2023-07-31T04:33:18;100464.88;;;21.13;100.00
8575;BME280;4325;42.520;27.448;2023-07-31T04:35:50;100468.47;;;21.26;100.00
8575;BME280;4325;42.520;27.448;2023-07-31T04:38:18;100466.25;;;21.31;100.00
8575;BME280;4325;42.520;27.448;2023-07-31T04:40:45;100467.31;;;21.39;100.00
8575;BME280;4325;42.520;27.448;2023-07-31T04:43:12;100465.88;;;21.45;100.00
8575;BME280;4325;42.520;27.448;2023-07-31T04:45:39;100469.81;;;21.56;100.00
8575;BME280;4325;42.520;27.448;2023-07-31T04:48:08;100475.69;;;21.66;100.00
8575;BME280;4325;42.520;27.448;2023-07-31T04:50:35;100478.13;;;21.80;100.00
8575;BME280;4325;42.520;27.448;2023-07-31T04:53:03;100480.16;;;21.95;100.00
8575;BME280;4325;42.520;27.448;2023-07-31T04:55:30;100481.31;;;22.06;100.00
8575;BME280;4325;42.520;27.448;2023-07-31T04:57:58;100486.13;;;22.21;100.00
8575;BME280;4325;42.520;27.448;2023-07-31T05:00:25;100491.41;;;22.39;100.00
8575;BME280;4325;42.520;27.448;2023-07-31T05:02:52;100490.50;;;22.50;100.00
8575;BME280;4325;42.520;27.448;2023-07-31T05:05:19;100498.91;;;22.66;100.00
8575;BME280;4325;42.520;27.448;2023-07-31T05:07:45;100492.53;;;22.81;100.00
8575;BME280;4325;42.520;27.448;2023-07-31T05:10:14;100497.97;;;22.89;100.00
8575;BME280;4325;42.520;27.448;2023-07-31T05:12:41;100497.06;;;23.01;100.00
8575;BME280;4325;42.520;27.448;2023-07-31T05:15:09;100493.28;;;23.09;100.00
8575;BME280;4325;42.520;27.448;2023-07-31T05:17:35;100494.78;;;23.22;100.00
8575;BME280;4325;42.520;27.448;2023-07-31T05:20:03;100507.75;;;23.30;100.00
8575;BME280;4325;42.520;27.448;2023-07-31T05:22:30;100512.38;;;23.23;100.00
8575;BME280;4325;42.520;27.448;2023-07-31T05:24:57;100520.19;;;23.17;100.00
8575;BME280;4325;42.520;27.448;2023-07-31T05:27:25;100510.66;;;23.18;100.00
8575;BME280;4325;42.520;27.448;2023-07-31T05:29:52;100511.00;;;23.32;100.00
8575;BME280;4325;42.520;27.448;2023-07-31T05:32:19;100518.31;;;23.52;100.00
8575;BME280;4325;42.520;27.448;2023-07-31T05:34:45;100521.13;;;23.72;100.00
8575;BME280;4325;42.520;27.448;2023-07-31T05:37:14;100519.44;;;23.67;100.00
8575;BME280;4325;42.520;27.448;2023-07-31T05:39:40;100518.75;;;23.54;100.00
8575;BME280;4325;42.520;27.448;2023-07-31T05:42:07;100525.72;;;23.45;100.00
8575;BME280;4325;42.520;27.448;2023-07-31T05:44:35;100516.66;;;23.51;100.00
8575;BME280;4325;42.520;27.448;2023-07-31T05:47:03;100518.84;;;23.58;100.00
8575;BME280;4325;42.520;27.448;2023-07-31T05:49:30;100522.59;;;23.65;100.00
8575;BME280;4325;42.520;27.448;2023-07-31T05:51:57;100527.91;;;23.71;100.00
8575;BME280;4325;42.520;27.448;2023-07-31T05:54:24;100525.28;;;23.78;100.00
8575;BME280;4325;42.520;27.448;2023-07-31T05:56:50;100531.19;;;23.92;100.00
8575;BME280;4325;42.520;27.448;2023-07-31T05:59:17;100532.06;;;23.96;100.00
8575;BME280;4325;42.520;27.448;2023-07-31T06:01:46;100521.97;;;23.91;100.00
8575;BME280;4325;42.520;27.448;2023-07-31T06:04:13;100535.97;;;23.91;100.00
8575;BME280;4325;42.520;27.448;2023-07-31T06:06:39;100527.00;;;24.01;100.00
8575;BME280;4325;42.520;27.448;2023-07-31T06:09:06;100529.84;;;24.20;100.00
8575;BME280;4325;42.520;27.448;2023-07-31T06:11:33;100538.34;;;24.47;100.00
8575;BME280;4325;42.520;27.448;2023-07-31T06:14:00;100537.91;;;24.64;100.00
8575;BME280;4325;42.520;27.448;2023-07-31T06:16:27;100536.94;;;24.56;100.00
8575;BME280;4325;42.520;27.448;2023-07-31T06:18:55;100539.00;;;24.78;100.00
8575;BME280;4325;42.520;27.448;2023-07-31T06:21:22;100543.81;;;25.01;100.00
8575;BME280;4325;42.520;27.448;2023-07-31T06:23:49;100549.47;;;25.27;100.00
8575;BME280;4325;42.520;27.448;2023-07-31T06:26:16;100544.28;;;25.29;100.00
8575;BME280;4325;42.520;27.448;2023-07-31T06:28:43;100545.81;;;25.23;100.00
8575;BME280;4325;42.520;27.448;2023-07-31T06:31:10;100533.06;;;25.29;100.00
8575;BME280;4325;42.520;27.448;2023-07-31T06:33:37;100539.59;;;25.36;100.00
8575;BME280;4325;42.520;27.448;2023-07-31T06:36:06;100534.81;;;25.37;100.00
8575;BME280;4325;42.520;27.448;2023-07-31T06:38:33;100533.47;;;25.27;100.00
8575;BME280;4325;42.520;27.448;2023-07-31T06:41:00;100531.63;;;25.38;100.00
8575;BME280;4325;42.520;27.448;2023-07-31T06:43:26;100532.25;;;25.51;100.00
8575;BME280;4325;42.520;27.448;2023-07-31T06:45:53;100542.81;;;25.58;100.00
8575;BME280;4325;42.520;27.448;2023-07-31T06:48:20;100536.53;;;25.68;100.00
8575;BME280;4325;42.520;27.448;2023-07-31T06:50:47;100546.31;;;25.77;100.00
8575;BME280;4325;42.520;27.448;2023-07-31T06:53:15;100533.28;;;25.66;100.00
8575;BME280;4325;42.520;27.448;2023-07-31T06:55:42;100539.28;;;25.64;100.00
8575;BME280;4325;42.520;27.448;2023-07-31T06:58:09;100548.66;;;25.75;100.00
8575;BME280;4325;42.520;27.448;2023-07-31T07:00:36;100546.34;;;25.81;100.00
8575;BME280;4325;42.520;27.448;2023-07-31T07:03:03;100555.03;;;25.72;100.00
8575;BME280;4325;42.520;27.448;2023-07-31T07:05:30;100539.28;;;25.64;100.00
8575;BME280;4325;42.520;27.448;2023-07-31T07:07:56;100545.63;;;25.87;100.00
8575;BME280;4325;42.520;27.448;2023-07-31T07:10:25;100550.31;;;26.06;100.00
8575;BME280;4325;42.520;27.448;2023-07-31T07:12:53;100551.78;;;26.26;100.00
8575;BME280;4325;42.520;27.448;2023-07-31T07:15:21;100559.09;;;26.31;100.00
8575;BME280;4325;42.520;27.448;2023-07-31T07:17:48;100548.03;;;26.45;100.00
8575;BME280;4325;42.520;27.448;2023-07-31T07:20:15;100558.84;;;26.43;100.00
8575;BME280;4325;42.520;27.448;2023-07-31T07:22:41;100555.25;;;26.46;100.00
8575;BME280;4325;42.520;27.448;2023-07-31T07:25:09;100559.34;;;26.52;98.05
8575;BME280;4325;42.520;27.448;2023-07-31T07:27:37;100562.72;;;26.64;97.39
8575;BME280;4325;42.520;27.448;2023-07-31T07:30:05;100563.50;;;27.02;98.62
8575;BME280;4325;42.520;27.448;2023-07-31T07:32:32;100569.00;;;27.28;89.93
8575;BME280;4325;42.520;27.448;2023-07-31T07:34:59;100571.66;;;27.58;85.78
8575;BME280;4325;42.520;27.448;2023-07-31T07:37:26;100569.91;;;27.93;88.90
8575;BME280;4325;42.520;27.448;2023-07-31T07:39:53;100575.81;;;28.39;76.06
8575;BME280;4325;42.520;27.448;2023-07-31T07:42:20;100573.13;;;28.64;71.32
8575;BME280;4325;42.520;27.448;2023-07-31T07:44:49;100572.44;;;29.13;70.57
8575;BME280;4325;42.520;27.448;2023-07-31T07:47:16;100586.53;;;29.06;67.43
8575;BME280;4325;42.520;27.448;2023-07-31T07:49:43;100579.59;;;28.78;68.35
8575;BME280;4325;42.520;27.448;2023-07-31T07:52:10;100579.56;;;28.64;69.90
8575;BME280;4325;42.520;27.448;2023-07-31T07:54:37;100579.44;;;28.43;69.64
8575;BME280;4325;42.520;27.448;2023-07-31T07:57:04;100585.81;;;28.26;70.62
8575;BME280;4325;42.520;27.448;2023-07-31T07:59:31;100582.47;;;28.03;69.89
8575;BME280;4325;42.520;27.448;2023-07-31T08:01:59;100584.41;;;27.99;72.06
8575;BME280;4325;42.520;27.448;2023-07-31T08:04:26;100588.59;;;28.19;71.72
8575;BME280;4325;42.520;27.448;2023-07-31T08:06:53;100588.75;;;28.47;68.79
8575;BME280;4325;42.520;27.448;2023-07-31T08:09:20;100601.41;;;28.96;66.51
8575;BME280;4325;42.520;27.448;2023-07-31T08:11:47;100591.72;;;28.86;64.99
8575;BME280;4325;42.520;27.448;2023-07-31T08:14:13;100600.63;;;29.13;63.91
8575;BME280;4325;42.520;27.448;2023-07-31T08:16:40;100599.06;;;29.54;61.18
8575;BME280;4325;42.520;27.448;2023-07-31T08:19:09;100604.31;;;29.84;59.23
8575;BME280;4325;42.520;27.448;2023-07-31T08:21:36;100601.88;;;29.96;57.25
8575;BME280;4325;42.520;27.448;2023-07-31T08:24:02;100601.50;;;29.59;58.66
8575;BME280;4325;42.520;27.448;2023-07-31T08:26:29;100603.09;;;29.53;58.38
8575;BME280;4325;42.520;27.448;2023-07-31T08:28:56;100597.25;;;30.66;54.94
8575;BME280;4325;42.520;27.448;2023-07-31T08:31:24;100593.19;;;31.84;52.80
8575;BME280;4325;42.520;27.448;2023-07-31T08:33:52;100591.72;;;31.69;48.66
8575;BME280;4325;42.520;27.448;2023-07-31T08:36:20;100595.88;;;31.57;48.62
8575;BME280;4325;42.520;27.448;2023-07-31T08:38:47;100592.44;;;32.54;49.05
8575;BME280;4325;42.520;27.448;2023-07-31T08:41:15;100587.03;;;32.94;45.20
8575;BME280;4325;42.520;27.448;2023-07-31T08:43:44;100586.69;;;32.92;45.94
8575;BME280;4325;42.520;27.448;2023-07-31T08:46:12;100575.84;;;32.19;46.21
8575;BME280;4325;42.520;27.448;2023-07-31T08:48:41;100578.44;;;32.03;46.94
8575;BME280;4325;42.520;27.448;2023-07-31T08:51:09;100583.44;;;32.63;45.68
8575;BME280;4325;42.520;27.448;2023-07-31T08:53:37;100577.22;;;33.98;42.94
8575;BME280;4325;42.520;27.448;2023-07-31T08:56:05;100579.44;;;35.89;38.93
8575;BME280;4325;42.520;27.448;2023-07-31T08:58:34;100574.53;;;37.51;36.84
8575;BME280;4325;42.520;27.448;2023-07-31T09:01:03;100577.94;;;38.40;33.59
8575;BME280;4325;42.520;27.448;2023-07-31T09:03:34;100576.28;;;39.53;32.06
8575;BME280;4325;42.520;27.448;2023-07-31T09:06:02;100587.72;;;40.47;30.35
8575;BME280;4325;42.520;27.448;2023-07-31T09:08:30;100571.91;;;39.88;30.61
8575;BME280;4325;42.520;27.448;2023-07-31T09:11:01;100577.31;;;37.42;33.33
8575;BME280;4325;42.520;27.448;2023-07-31T09:13:30;100583.19;;;36.43;35.77
8575;BME280;4325;42.520;27.448;2023-07-31T09:15:57;100576.00;;;35.65;37.18
8575;BME280;4325;42.520;27.448;2023-07-31T09:18:24;100573.59;;;35.64;37.68
8575;BME280;4325;42.520;27.448;2023-07-31T09:21:01;100576.97;;;35.59;38.66
8575;BME280;4325;42.520;27.448;2023-07-31T09:23:40;100575.09;;;35.00;39.78
8575;BME280;4325;42.520;27.448;2023-07-31T09:26:08;100594.56;;;34.27;40.73
8575;BME280;4325;42.520;27.448;2023-07-31T09:28:36;100606.91;;;33.74;42.65
8575;BME280;4325;42.520;27.448;2023-07-31T09:31:03;100622.59;;;33.02;43.67
8575;BME280;4325;42.520;27.448;2023-07-31T09:33:29;100634.84;;;32.28;47.68
8575;BME280;4325;42.520;27.448;2023-07-31T09:35:59;100632.38;;;31.38;54.39
8575;BME280;4325;42.520;27.448;2023-07-31T09:38:27;100618.38;;;30.16;63.56
8575;BME280;4325;42.520;27.448;2023-07-31T09:40:54;100614.38;;;29.64;71.04
8575;BME280;4325;42.520;27.448;2023-07-31T09:43:22;100618.41;;;29.38;73.86
8575;BME280;4325;42.520;27.448;2023-07-31T09:45:55;100614.78;;;29.34;76.91
8575;BME280;4325;42.520;27.448;2023-07-31T09:48:23;100616.81;;;29.44;77.50
8575;BME280;4325;42.520;27.448;2023-07-31T09:50:53;100606.31;;;29.41;83.77
8575;BME280;4325;42.520;27.448;2023-07-31T09:53:28;100593.44;;;29.36;86.76
8575;BME280;4325;42.520;27.448;2023-07-31T09:55:58;100586.56;;;29.20;93.28
8575;BME280;4325;42.520;27.448;2023-07-31T09:58:28;100577.19;;;28.81;100.00
8575;BME280;4325;42.520;27.448;2023-07-31T10:00:57;100580.31;;;28.54;100.00
8575;BME280;4325;42.520;27.448;2023-07-31T10:03:25;100579.06;;;28.48;100.00
8575;BME280;4325;42.520;27.448;2023-07-31T10:05:53;100576.59;;;28.36;96.12
8575;BME280;4325;42.520;27.448;2023-07-31T10:08:26;100580.63;;;28.35;90.94
8575;BME280;4325;42.520;27.448;2023-07-31T10:10:58;100573.03;;;28.46;97.11
8575;BME280;4325;42.520;27.448;2023-07-31T10:13:27;100573.56;;;28.80;96.25
8575;BME280;4325;42.520;27.448;2023-07-31T10:15:58;100574.81;;;28.93;89.85
8575;BME280;4325;42.520;27.448;2023-07-31T10:18:26;100576.03;;;29.03;93.26
8575;BME280;4325;42.520;27.448;2023-07-31T10:20:54;100562.78;;;29.28;91.48
8575;BME280;4325;42.520;27.448;2023-07-31T10:23:22;100561.19;;;29.48;87.72
8575;BME280;4325;42.520;27.448;2023-07-31T10:25:49;100563.63;;;29.50;83.98
8575;BME280;4325;42.520;27.448;2023-07-31T10:28:18;100559.56;;;29.33;84.76
8575;BME280;4325;42.520;27.448;2023-07-31T10:30:46;100564.00;;;29.30;86.29
8575;BME280;4325;42.520;27.448;2023-07-31T10:33:15;100557.94;;;29.21;83.13
8575;BME280;4325;42.520;27.448;2023-07-31T10:35:42;100559.06;;;28.82;84.14
8575;BME280;4325;42.520;27.448;2023-07-31T10:38:10;100551.31;;;28.54;89.13
8575;BME280;4325;42.520;27.448;2023-07-31T10:40:38;100560.91;;;28.39;88.68
8575;BME280;4325;42.520;27.448;2023-07-31T10:43:06;100557.22;;;28.24;93.33
8575;BME280;4325;42.520;27.448;2023-07-31T10:45:35;100561.59;;;28.11;95.30
8575;BME280;4325;42.520;27.448;2023-07-31T10:48:05;100566.28;;;27.93;95.81
8575;BME280;4325;42.520;27.448;2023-07-31T10:50:33;100572.66;;;27.83;96.88
8575;BME280;4325;42.520;27.448;2023-07-31T10:53:03;100570.97;;;27.71;93.79
8575;BME280;4325;42.520;27.448;2023-07-31T10:55:33;100578.91;;;27.59;97.11
8575;BME280;4325;42.520;27.448;2023-07-31T10:58:06;100566.34;;;27.42;100.00
8575;BME280;4325;42.520;27.448;2023-07-31T11:00:34;100570.72;;;27.39;100.00
8575;BME280;4325;42.520;27.448;2023-07-31T11:03:05;100563.59;;;27.52;100.00
8575;BME280;4325;42.520;27.448;2023-07-31T11:05:48;100562.97;;;27.77;100.00
8575;BME280;4325;42.520;27.448;2023-07-31T11:08:18;100563.03;;;27.87;99.83
8575;BME280;4325;42.520;27.448;2023-07-31T11:10:47;100561.44;;;27.90;100.00
8575;BME280;4325;42.520;27.448;2023-07-31T11:13:14;100563.03;;;27.84;97.64
8575;BME280;4325;42.520;27.448;2023-07-31T11:15:41;100556.13;;;27.74;98.12
8575;BME280;4325;42.520;27.448;2023-07-31T11:18:09;100545.22;;;27.66;100.00
8575;BME280;4325;42.520;27.448;2023-07-31T11:20:37;100552.84;;;27.65;100.00
8575;BME280;4325;42.520;27.448;2023-07-31T11:23:07;100551.59;;;27.63;100.00
8575;BME280;4325;42.520;27.448;2023-07-31T11:25:36;100556.38;;;27.52;100.00
8575;BME280;4325;42.520;27.448;2023-07-31T11:28:05;100555.53;;;27.47;100.00
8575;BME280;4325;42.520;27.448;2023-07-31T11:30:32;100557.13;;;27.48;100.00
8575;BME280;4325;42.520;27.448;2023-07-31T11:33:00;100549.16;;;27.54;100.00
8575;BME280;4325;42.520;27.448;2023-07-31T11:35:31;100545.22;;;27.66;100.00
8575;BME280;4325;42.520;27.448;2023-07-31T11:37:58;100550.91;;;27.80;100.00
8575;BME280;4325;42.520;27.448;2023-07-31T11:40:25;100549.81;;;27.95;100.00
8575;BME280;4325;42.520;27.448;2023-07-31T11:42:58;100543.06;;;28.03;100.00
8575;BME280;4325;42.520;27.448;2023-07-31T11:45:26;100543.16;;;28.21;100.00
8575;BME280;4325;42.520;27.448;2023-07-31T11:47:55;100542.81;;;28.36;97.99
8575;BME280;4325;42.520;27.448;2023-07-31T11:50:23;100535.97;;;28.37;95.10
8575;BME280;4325;42.520;27.448;2023-07-31T11:52:56;100540.38;;;28.31;96.17
8575;BME280;4325;42.520;27.448;2023-07-31T11:55:24;100543.59;;;28.33;99.12
8575;BME280;4325;42.520;27.448;2023-07-31T11:57:51;100544.03;;;28.39;98.44
8575;BME280;4325;42.520;27.448;2023-07-31T12:00:19;100540.84;;;28.51;96.12
8575;BME280;4325;42.520;27.448;2023-07-31T12:02:47;100534.50;;;28.68;95.33
8575;BME280;4325;42.520;27.448;2023-07-31T12:05:14;100538.56;;;28.95;93.06
8575;BME280;4325;42.520;27.448;2023-07-31T12:07:48;100540.19;;;29.14;89.78
8575;BME280;4325;42.520;27.448;2023-07-31T12:10:27;100539.81;;;29.33;84.30
8575;BME280;4325;42.520;27.448;2023-07-31T12:13:03;100536.19;;;29.78;82.81
8575;BME280;4325;42.520;27.448;2023-07-31T12:15:40;100539.56;;;31.22;73.43
8575;BME280;4325;42.520;27.448;2023-07-31T12:18:10;100537.44;;;33.78;60.74
8575;BME280;4325;42.520;27.448;2023-07-31T12:21:02;100548.22;;;35.98;51.47
8575;BME280;4325;42.520;27.448;2023-07-31T12:23:32;100547.41;;;37.68;44.56
8575;BME280;4325;42.520;27.448;2023-07-31T12:26:05;100548.41;;;39.35;38.78
8575;BME280;4325;42.520;27.448;2023-07-31T12:28:35;100549.63;;;40.98;34.40
8575;BME280;4325;42.520;27.448;2023-07-31T12:31:04;100547.38;;;39.96;33.19
8575;BME280;4325;42.520;27.448;2023-07-31T12:33:32;100531.28;;;38.52;35.64
8575;BME280;4325;42.520;27.448;2023-07-31T12:36:02;100528.63;;;38.88;35.31
8575;BME280;4325;42.520;27.448;2023-07-31T12:38:29;100534.00;;;40.30;33.82
8575;BME280;4325;42.520;27.448;2023-07-31T12:40:56;100524.50;;;42.69;31.23
8575;BME280;4325;42.520;27.448;2023-07-31T12:43:24;100518.19;;;43.70;29.07
8575;BME280;4325;42.520;27.448;2023-07-31T12:45:53;100530.72;;;44.84;27.65
8575;BME280;4325;42.520;27.448;2023-07-31T12:48:20;100521.00;;;46.36;26.91
8575;BME280;4325;42.520;27.448;2023-07-31T12:50:47;100522.91;;;45.86;26.65
8575;BME280;4325;42.520;27.448;2023-07-31T12:53:14;100518.22;;;45.94;25.79
8575;BME280;4325;42.520;27.448;2023-07-31T12:55:41;100514.16;;;46.51;25.55
8575;BME280;4325;42.520;27.448;2023-07-31T12:58:08;100509.41;;;46.70;25.05